sensor_id;sensor_type;location;lat;lon;timestamp;P1;durP1;ratioP1;P2;durP2;ratioP2
64520;SDS011;50896;46.714;17.322;2022-10-15T00:01:19;31.27;;;21.38;;
64520;SDS011;50896;46.714;17.322;2022-10-15T00:03:53;32.92;;;21.33;;
64520;SDS011;50896;46.714;17.322;2022-10-15T00:06:29;30.70;;;21.17;;
64520;SDS011;50896;46.714;17.322;2022-10-15T00:09:04;32.88;;;20.02;;
64520;SDS011;50896;46.714;17.322;2022-10-15T00:11:35;31.50;;;19.83;;
64520;SDS011;50896;46.714;17.322;2022-10-15T00:14:03;28.88;;;19.23;;
64520;SDS011;50896;46.714;17.322;2022-10-15T00:16:34;30.42;;;19.95;;
64520;SDS011;50896;46.714;17.322;2022-10-15T00:19:01;30.27;;;19.38;;
64520;SDS011;50896;46.714;17.322;2022-10-15T00:21:29;28.70;;;18.02;;
64520;SDS011;50896;46.714;17.322;2022-10-15T00:23:58;30.98;;;18.02;;
64520;SDS011;50896;46.714;17.322;2022-10-15T00:26:26;29.00;;;19.15;;
64520;SDS011;50896;46.714;17.322;2022-10-15T00:29:04;30.03;;;18.53;;
64520;SDS011;50896;46.714;17.322;2022-10-15T00:31:40;28.30;;;18.08;;
64520;SDS011;50896;46.714;17.322;2022-10-15T00:34:07;31.63;;;19.63;;
64520;SDS011;50896;46.714;17.322;2022-10-15T00:36:40;28.83;;;18.77;;
64520;SDS011;50896;46.714;17.322;2022-10-15T00:39:09;29.00;;;19.08;;
64520;SDS011;50896;46.714;17.322;2022-10-15T00:41:39;27.52;;;17.88;;
64520;SDS011;50896;46.714;17.322;2022-10-15T00:49:47;28.25;;;19.15;;
64520;SDS011;50896;46.714;17.322;2022-10-15T00:52:38;28.13;;;18.02;;
64520;SDS011;50896;46.714;17.322;2022-10-15T00:55:50;31.95;;;18.90;;
64520;SDS011;50896;46.714;17.322;2022-10-15T00:58:13;36.00;;;19.70;;
64520;SDS011;50896;46.714;17.322;2022-10-15T01:00:59;28.70;;;18.73;;
64520;SDS011;50896;46.714;17.322;2022-10-15T01:03:29;26.63;;;19.08;;
64520;SDS011;50896;46.714;17.322;2022-10-15T01:06:06;25.17;;;16.88;;
64520;SDS011;50896;46.714;17.322;2022-10-15T01:08:36;24.23;;;17.83;;
64520;SDS011;50896;46.714;17.322;2022-10-15T01:13:57;24.23;;;17.52;;
64520;SDS011;50896;46.714;17.322;2022-10-15T01:16:49;25.17;;;16.40;;
64520;SDS011;50896;46.714;17.322;2022-10-15T01:19:45;22.73;;;16.65;;
64520;SDS011;50896;46.714;17.322;2022-10-15T01:34:09;25.02;;;16.83;;
64520;SDS011;50896;46.714;17.322;2022-10-15T01:39:38;23.48;;;16.23;;
64520;SDS011;50896;46.714;17.322;2022-10-15T01:42:25;25.55;;;17.40;;
64520;SDS011;50896;46.714;17.322;2022-10-15T01:45:04;28.33;;;17.80;;
64520;SDS011;50896;46.714;17.322;2022-10-15T01:48:07;22.77;;;17.13;;
64520;SDS011;50896;46.714;17.322;2022-10-15T01:50:38;27.38;;;17.65;;
64520;SDS011;50896;46.714;17.322;2022-10-15T01:53:22;28.17;;;17.85;;
64520;SDS011;50896;46.714;17.322;2022-10-15T01:55:58;25.55;;;18.13;;
64520;SDS011;50896;46.714;17.322;2022-10-15T01:58:41;29.33;;;18.02;;
64520;SDS011;50896;46.714;17.322;2022-10-15T02:01:18;25.15;;;17.60;;
64520;SDS011;50896;46.714;17.322;2022-10-15T02:03:45;32.22;;;18.30;;
64520;SDS011;50896;46.714;17.322;2022-10-15T02:06:26;30.05;;;19.63;;
64520;SDS011;50896;46.714;17.322;2022-10-15T02:09:26;29.35;;;20.85;;
64520;SDS011;50896;46.714;17.322;2022-10-15T02:12:08;32.95;;;21.63;;
64520;SDS011;50896;46.714;17.322;2022-10-15T02:14:59;25.52;;;17.67;;
64520;SDS011;50896;46.714;17.322;2022-10-15T02:20:50;32.38;;;21.13;;
64520;SDS011;50896;46.714;17.322;2022-10-15T02:23:35;31.88;;;20.98;;
64520;SDS011;50896;46.714;17.322;2022-10-15T02:26:23;32.47;;;21.33;;
64520;SDS011;50896;46.714;17.322;2022-10-15T02:29:00;30.52;;;21.02;;
64520;SDS011;50896;46.714;17.322;2022-10-15T02:31:38;28.55;;;20.55;;
64520;SDS011;50896;46.714;17.322;2022-10-15T02:34:14;29.83;;;20.00;;
64520;SDS011;50896;46.714;17.322;2022-10-15T02:36:49;27.15;;;17.92;;
64520;SDS011;50896;46.714;17.322;2022-10-15T02:39:22;25.52;;;17.98;;
64520;SDS011;50896;46.714;17.322;2022-10-15T02:41:59;28.15;;;18.38;;
64520;SDS011;50896;46.714;17.322;2022-10-15T02:44:34;27.92;;;17.73;;
64520;SDS011;50896;46.714;17.322;2022-10-15T02:47:07;24.25;;;16.25;;
64520;SDS011;50896;46.714;17.322;2022-10-15T02:49:41;27.00;;;18.25;;
64520;SDS011;50896;46.714;17.322;2022-10-15T02:54:40;25.95;;;17.42;;
64520;SDS011;50896;46.714;17.322;2022-10-15T02:57:07;26.77;;;16.60;;
64520;SDS011;50896;46.714;17.322;2022-10-15T02:59:41;24.73;;;16.98;;
64520;SDS011;50896;46.714;17.322;2022-10-15T03:02:09;26.27;;;17.38;;
64520;SDS011;50896;46.714;17.322;2022-10-15T03:04:47;27.58;;;17.30;;
64520;SDS011;50896;46.714;17.322;2022-10-15T03:07:26;31.02;;;19.88;;
64520;SDS011;50896;46.714;17.322;2022-10-15T03:10:01;28.83;;;17.83;;
64520;SDS011;50896;46.714;17.322;2022-10-15T03:12:29;27.20;;;17.70;;
64520;SDS011;50896;46.714;17.322;2022-10-15T03:15:09;28.17;;;19.50;;
64520;SDS011;50896;46.714;17.322;2022-10-15T03:17:47;26.50;;;17.15;;
64520;SDS011;50896;46.714;17.322;2022-10-15T03:20:24;25.95;;;17.33;;
64520;SDS011;50896;46.714;17.322;2022-10-15T03:22:59;26.20;;;16.65;;
64520;SDS011;50896;46.714;17.322;2022-10-15T03:25:31;24.10;;;17.45;;
64520;SDS011;50896;46.714;17.322;2022-10-15T03:28:04;24.63;;;16.00;;
64520;SDS011;50896;46.714;17.322;2022-10-15T03:30:36;23.13;;;15.95;;
64520;SDS011;50896;46.714;17.322;2022-10-15T03:33:10;24.67;;;17.95;;
64520;SDS011;50896;46.714;17.322;2022-10-15T03:35:48;26.65;;;17.90;;
64520;SDS011;50896;46.714;17.322;2022-10-15T03:38:26;23.85;;;17.20;;
64520;SDS011;50896;46.714;17.322;2022-10-15T03:40:58;24.90;;;16.97;;
64520;SDS011;50896;46.714;17.322;2022-10-15T03:43:39;21.35;;;15.77;;
64520;SDS011;50896;46.714;17.322;2022-10-15T03:46:10;22.83;;;16.90;;
64520;SDS011;50896;46.714;17.322;2022-10-15T03:48:42;23.35;;;16.48;;
64520;SDS011;50896;46.714;17.322;2022-10-15T03:51:12;22.38;;;16.05;;
64520;SDS011;50896;46.714;17.322;2022-10-15T03:53:55;21.80;;;15.77;;
64520;SDS011;50896;46.714;17.322;2022-10-15T03:56:26;23.27;;;17.08;;
64520;SDS011;50896;46.714;17.322;2022-10-15T03:59:11;25.33;;;17.90;;
64520;SDS011;50896;46.714;17.322;2022-10-15T04:01:40;25.17;;;18.50;;
64520;SDS011;50896;46.714;17.322;2022-10-15T04:04:15;26.25;;;18.60;;
64520;SDS011;50896;46.714;17.322;2022-10-15T04:06:57;25.45;;;18.80;;
64520;SDS011;50896;46.714;17.322;2022-10-15T04:09:36;24.45;;;18.63;;
64520;SDS011;50896;46.714;17.322;2022-10-15T04:12:26;27.33;;;19.98;;
64520;SDS011;50896;46.714;17.322;2022-10-15T04:15:00;26.33;;;18.85;;
64520;SDS011;50896;46.714;17.322;2022-10-15T04:17:33;29.10;;;20.42;;
64520;SDS011;50896;46.714;17.322;2022-10-15T04:20:01;29.35;;;19.88;;
64520;SDS011;50896;46.714;17.322;2022-10-15T04:22:37;26.50;;;19.55;;
64520;SDS011;50896;46.714;17.322;2022-10-15T04:25:08;25.55;;;19.50;;
64520;SDS011;50896;46.714;17.322;2022-10-15T04:27:44;27.45;;;19.50;;
64520;SDS011;50896;46.714;17.322;2022-10-15T04:30:17;26.88;;;19.55;;
64520;SDS011;50896;46.714;17.322;2022-10-15T04:32:57;25.58;;;18.48;;
64520;SDS011;50896;46.714;17.322;2022-10-15T04:35:32;28.00;;;20.02;;
64520;SDS011;50896;46.714;17.322;2022-10-15T04:38:13;29.85;;;19.20;;
64520;SDS011;50896;46.714;17.322;2022-10-15T04:41:04;25.25;;;18.23;;
64520;SDS011;50896;46.714;17.322;2022-10-15T04:43:50;26.45;;;19.52;;
64520;SDS011;50896;46.714;17.322;2022-10-15T04:46:21;27.02;;;18.80;;
64520;SDS011;50896;46.714;17.322;2022-10-15T04:48:51;28.70;;;19.75;;
64520;SDS011;50896;46.714;17.322;2022-10-15T04:51:25;25.75;;;19.15;;
64520;SDS011;50896;46.714;17.322;2022-10-15T04:57:03;28.30;;;18.90;;
64520;SDS011;50896;46.714;17.322;2022-10-15T04:59:34;28.00;;;18.55;;
64520;SDS011;50896;46.714;17.322;2022-10-15T05:02:26;27.27;;;18.50;;
64520;SDS011;50896;46.714;17.322;2022-10-15T05:05:09;26.63;;;19.00;;
64520;SDS011;50896;46.714;17.322;2022-10-15T05:07:49;27.88;;;19.33;;
64520;SDS011;50896;46.714;17.322;2022-10-15T05:10:23;27.90;;;19.13;;
64520;SDS011;50896;46.714;17.322;2022-10-15T05:13:07;27.92;;;18.50;;
64520;SDS011;50896;46.714;17.322;2022-10-15T05:15:41;28.02;;;19.60;;
64520;SDS011;50896;46.714;17.322;2022-10-15T05:18:13;24.58;;;18.48;;
64520;SDS011;50896;46.714;17.322;2022-10-15T05:20:49;26.00;;;18.60;;
64520;SDS011;50896;46.714;17.322;2022-10-15T05:23:19;24.33;;;17.38;;
64520;SDS011;50896;46.714;17.322;2022-10-15T05:26:11;24.90;;;18.10;;
64520;SDS011;50896;46.714;17.322;2022-10-15T05:28:49;25.00;;;17.85;;
64520;SDS011;50896;46.714;17.322;2022-10-15T05:31:29;25.60;;;18.73;;
64520;SDS011;50896;46.714;17.322;2022-10-15T05:34:06;27.92;;;19.48;;
64520;SDS011;50896;46.714;17.322;2022-10-15T05:36:42;25.42;;;18.25;;
64520;SDS011;50896;46.714;17.322;2022-10-15T05:39:15;33.50;;;18.83;;
64520;SDS011;50896;46.714;17.322;2022-10-15T05:41:47;22.50;;;17.05;;
64520;SDS011;50896;46.714;17.322;2022-10-15T05:44:30;24.58;;;18.00;;
64520;SDS011;50896;46.714;17.322;2022-10-15T05:46:58;25.35;;;18.33;;
64520;SDS011;50896;46.714;17.322;2022-10-15T05:49:26;24.25;;;17.58;;
64520;SDS011;50896;46.714;17.322;2022-10-15T05:52:00;24.20;;;18.05;;
64520;SDS011;50896;46.714;17.322;2022-10-15T05:54:50;24.02;;;17.65;;
64520;SDS011;50896;46.714;17.322;2022-10-15T05:57:22;27.70;;;17.60;;
64520;SDS011;50896;46.714;17.322;2022-10-15T05:59:51;24.17;;;18.48;;
64520;SDS011;50896;46.714;17.322;2022-10-15T06:02:20;23.02;;;17.30;;
64520;SDS011;50896;46.714;17.322;2022-10-15T06:04:49;24.88;;;17.88;;
64520;SDS011;50896;46.714;17.322;2022-10-15T06:07:22;28.38;;;17.90;;
64520;SDS011;50896;46.714;17.322;2022-10-15T06:09:51;28.60;;;17.83;;
64520;SDS011;50896;46.714;17.322;2022-10-15T06:12:23;28.30;;;17.38;;
64520;SDS011;50896;46.714;17.322;2022-10-15T06:14:53;28.50;;;19.40;;
64520;SDS011;50896;46.714;17.322;2022-10-15T06:17:22;24.95;;;16.98;;
64520;SDS011;50896;46.714;17.322;2022-10-15T06:22:22;23.65;;;16.10;;
64520;SDS011;50896;46.714;17.322;2022-10-15T06:24:51;25.85;;;17.48;;
64520;SDS011;50896;46.714;17.322;2022-10-15T06:27:26;28.05;;;17.70;;
64520;SDS011;50896;46.714;17.322;2022-10-15T06:29:53;20.90;;;15.57;;
64520;SDS011;50896;46.714;17.322;2022-10-15T06:32:21;21.63;;;16.42;;
64520;SDS011;50896;46.714;17.322;2022-10-15T06:34:51;29.33;;;17.02;;
64520;SDS011;50896;46.714;17.322;2022-10-15T06:37:17;28.30;;;18.58;;
64520;SDS011;50896;46.714;17.322;2022-10-15T06:39:47;28.67;;;18.30;;
64520;SDS011;50896;46.714;17.322;2022-10-15T06:42:13;29.23;;;18.85;;
64520;SDS011;50896;46.714;17.322;2022-10-15T06:44:49;28.42;;;19.55;;
64520;SDS011;50896;46.714;17.322;2022-10-15T06:47:21;29.33;;;19.50;;
64520;SDS011;50896;46.714;17.322;2022-10-15T06:49:48;27.67;;;18.42;;
64520;SDS011;50896;46.714;17.322;2022-10-15T06:52:17;31.30;;;19.23;;
64520;SDS011;50896;46.714;17.322;2022-10-15T06:54:44;28.15;;;19.27;;
64520;SDS011;50896;46.714;17.322;2022-10-15T06:57:12;30.08;;;20.13;;
64520;SDS011;50896;46.714;17.322;2022-10-15T06:59:41;29.08;;;20.05;;
64520;SDS011;50896;46.714;17.322;2022-10-15T07:02:11;28.45;;;18.73;;
64520;SDS011;50896;46.714;17.322;2022-10-15T07:04:43;26.50;;;19.35;;
64520;SDS011;50896;46.714;17.322;2022-10-15T07:07:19;28.65;;;20.75;;
64520;SDS011;50896;46.714;17.322;2022-10-15T07:09:48;29.75;;;19.58;;
64520;SDS011;50896;46.714;17.322;2022-10-15T07:12:23;29.33;;;18.98;;
64520;SDS011;50896;46.714;17.322;2022-10-15T07:14:50;28.63;;;19.13;;
64520;SDS011;50896;46.714;17.322;2022-10-15T07:17:23;25.77;;;18.40;;
64520;SDS011;50896;46.714;17.322;2022-10-15T07:19:54;30.25;;;18.08;;
64520;SDS011;50896;46.714;17.322;2022-10-15T07:22:24;25.25;;;17.17;;
64520;SDS011;50896;46.714;17.322;2022-10-15T07:25:00;28.17;;;16.85;;
64520;SDS011;50896;46.714;17.322;2022-10-15T07:27:33;24.15;;;15.70;;
64520;SDS011;50896;46.714;17.322;2022-10-15T07:30:05;22.77;;;16.27;;
64520;SDS011;50896;46.714;17.322;2022-10-15T07:32:33;21.50;;;15.07;;
64520;SDS011;50896;46.714;17.322;2022-10-15T07:35:02;22.05;;;15.70;;
64520;SDS011;50896;46.714;17.322;2022-10-15T07:37:37;25.20;;;16.38;;
64520;SDS011;50896;46.714;17.322;2022-10-15T07:40:11;23.13;;;15.82;;
64520;SDS011;50896;46.714;17.322;2022-10-15T07:42:42;28.27;;;17.35;;
64520;SDS011;50896;46.714;17.322;2022-10-15T07:45:20;39.28;;;23.55;;
64520;SDS011;50896;46.714;17.322;2022-10-15T07:47:55;34.70;;;22.20;;
64520;SDS011;50896;46.714;17.322;2022-10-15T07:50:33;31.73;;;19.63;;
64520;SDS011;50896;46.714;17.322;2022-10-15T07:53:07;36.10;;;20.90;;
64520;SDS011;50896;46.714;17.322;2022-10-15T07:55:38;28.58;;;18.80;;
64520;SDS011;50896;46.714;17.322;2022-10-15T07:58:12;26.98;;;18.55;;
64520;SDS011;50896;46.714;17.322;2022-10-15T08:00:51;27.98;;;18.00;;
64520;SDS011;50896;46.714;17.322;2022-10-15T08:03:18;26.52;;;17.05;;
64520;SDS011;50896;46.714;17.322;2022-10-15T08:05:45;27.90;;;20.63;;
64520;SDS011;50896;46.714;17.322;2022-10-15T08:08:36;22.83;;;16.85;;
64520;SDS011;50896;46.714;17.322;2022-10-15T08:11:09;27.30;;;21.55;;
64520;SDS011;50896;46.714;17.322;2022-10-15T08:13:43;25.38;;;18.00;;
64520;SDS011;50896;46.714;17.322;2022-10-15T08:18:58;28.80;;;16.27;;
64520;SDS011;50896;46.714;17.322;2022-10-15T08:21:28;21.65;;;16.52;;
64520;SDS011;50896;46.714;17.322;2022-10-15T08:24:00;30.63;;;21.63;;
64520;SDS011;50896;46.714;17.322;2022-10-15T08:26:33;40.03;;;26.02;;
64520;SDS011;50896;46.714;17.322;2022-10-15T08:29:02;47.88;;;28.80;;
64520;SDS011;50896;46.714;17.322;2022-10-15T08:31:36;40.85;;;27.60;;
64520;SDS011;50896;46.714;17.322;2022-10-15T08:34:12;30.90;;;18.70;;
64520;SDS011;50896;46.714;17.322;2022-10-15T08:36:42;53.22;;;32.20;;
64520;SDS011;50896;46.714;17.322;2022-10-15T08:39:16;26.50;;;17.75;;
64520;SDS011;50896;46.714;17.322;2022-10-15T08:41:53;24.33;;;18.15;;
64520;SDS011;50896;46.714;17.322;2022-10-15T08:44:39;31.88;;;20.33;;
64520;SDS011;50896;46.714;17.322;2022-10-15T08:47:55;70.57;;;37.88;;
64520;SDS011;50896;46.714;17.322;2022-10-15T08:50:33;29.33;;;19.30;;
64520;SDS011;50896;46.714;17.322;2022-10-15T08:53:07;24.63;;;16.60;;
64520;SDS011;50896;46.714;17.322;2022-10-15T08:55:44;19.83;;;15.05;;
64520;SDS011;50896;46.714;17.322;2022-10-15T09:01:00;20.88;;;15.07;;
64520;SDS011;50896;46.714;17.322;2022-10-15T09:04:16;25.98;;;16.10;;
64520;SDS011;50896;46.714;17.322;2022-10-15T09:06:39;22.48;;;15.50;;
64520;SDS011;50896;46.714;17.322;2022-10-15T09:11:50;21.77;;;15.38;;
64520;SDS011;50896;46.714;17.322;2022-10-15T09:14:28;26.05;;;15.25;;
64520;SDS011;50896;46.714;17.322;2022-10-15T09:16:59;26.73;;;16.38;;
64520;SDS011;50896;46.714;17.322;2022-10-15T09:19:33;22.45;;;15.95;;
64520;SDS011;50896;46.714;17.322;2022-10-15T09:22:08;21.27;;;14.80;;
64520;SDS011;50896;46.714;17.322;2022-10-15T09:24:43;21.08;;;14.70;;
64520;SDS011;50896;46.714;17.322;2022-10-15T09:27:22;27.80;;;16.38;;
64520;SDS011;50896;46.714;17.322;2022-10-15T09:35:42;24.85;;;16.45;;
64520;SDS011;50896;46.714;17.322;2022-10-15T09:46:49;22.30;;;14.88;;
64520;SDS011;50896;46.714;17.322;2022-10-15T09:49:27;20.83;;;14.20;;
64520;SDS011;50896;46.714;17.322;2022-10-15T09:57:35;24.52;;;14.75;;
64520;SDS011;50896;46.714;17.322;2022-10-15T10:00:15;21.85;;;14.05;;
64520;SDS011;50896;46.714;17.322;2022-10-15T10:03:02;21.02;;;13.85;;
64520;SDS011;50896;46.714;17.322;2022-10-15T10:05:40;21.77;;;13.23;;
64520;SDS011;50896;46.714;17.322;2022-10-15T10:08:16;18.10;;;14.30;;
64520;SDS011;50896;46.714;17.322;2022-10-15T10:10:53;20.27;;;13.55;;
64520;SDS011;50896;46.714;17.322;2022-10-15T10:13:25;21.38;;;13.60;;
64520;SDS011;50896;46.714;17.322;2022-10-15T10:16:07;20.63;;;14.02;;
64520;SDS011;50896;46.714;17.322;2022-10-15T10:18:37;16.92;;;13.27;;
64520;SDS011;50896;46.714;17.322;2022-10-15T10:21:23;22.27;;;13.48;;
64520;SDS011;50896;46.714;17.322;2022-10-15T10:27:21;20.25;;;12.98;;
64520;SDS011;50896;46.714;17.322;2022-10-15T10:29:55;18.65;;;12.18;;
64520;SDS011;50896;46.714;17.322;2022-10-15T10:32:29;18.95;;;13.05;;
64520;SDS011;50896;46.714;17.322;2022-10-15T10:37:55;16.00;;;11.32;;
64520;SDS011;50896;46.714;17.322;2022-10-15T10:40:33;16.75;;;11.40;;
64520;SDS011;50896;46.714;17.322;2022-10-15T10:45:58;14.20;;;6.43;;
64520;SDS011;50896;46.714;17.322;2022-10-15T10:48:45;10.35;;;6.07;;
64520;SDS011;50896;46.714;17.322;2022-10-15T10:51:16;12.10;;;5.50;;
64520;SDS011;50896;46.714;17.322;2022-10-15T10:53:53;12.38;;;5.53;;
64520;SDS011;50896;46.714;17.322;2022-10-15T10:56:24;9.95;;;5.15;;
64520;SDS011;50896;46.714;17.322;2022-10-15T11:01:48;15.77;;;7.63;;
64520;SDS011;50896;46.714;17.322;2022-10-15T11:04:28;12.80;;;9.40;;
64520;SDS011;50896;46.714;17.322;2022-10-15T11:12:48;10.00;;;5.00;;
64520;SDS011;50896;46.714;17.322;2022-10-15T11:24:01;10.07;;;5.82;;
64520;SDS011;50896;46.714;17.322;2022-10-15T11:38:29;8.93;;;4.93;;
64520;SDS011;50896;46.714;17.322;2022-10-15T11:43:53;10.25;;;4.75;;
64520;SDS011;50896;46.714;17.322;2022-10-15T11:55:41;7.68;;;4.80;;
64520;SDS011;50896;46.714;17.322;2022-10-15T11:58:33;10.07;;;4.70;;
64520;SDS011;50896;46.714;17.322;2022-10-15T12:01:14;7.13;;;4.90;;
64520;SDS011;50896;46.714;17.322;2022-10-15T12:03:54;9.32;;;5.10;;
64520;SDS011;50896;46.714;17.322;2022-10-15T12:06:33;6.63;;;5.05;;
64520;SDS011;50896;46.714;17.322;2022-10-15T12:09:08;8.77;;;5.13;;
64520;SDS011;50896;46.714;17.322;2022-10-15T12:11:48;10.82;;;5.10;;
64520;SDS011;50896;46.714;17.322;2022-10-15T12:14:34;9.02;;;5.28;;
64520;SDS011;50896;46.714;17.322;2022-10-15T12:17:20;8.93;;;5.22;;
64520;SDS011;50896;46.714;17.322;2022-10-15T12:19:59;12.10;;;5.30;;
64520;SDS011;50896;46.714;17.322;2022-10-15T12:30:36;33.10;;;17.38;;
64520;SDS011;50896;46.714;17.322;2022-10-15T12:33:21;18.75;;;10.02;;
64520;SDS011;50896;46.714;17.322;2022-10-15T12:35:58;18.77;;;10.10;;
64520;SDS011;50896;46.714;17.322;2022-10-15T12:38:38;11.65;;;7.40;;
64520;SDS011;50896;46.714;17.322;2022-10-15T12:41:22;14.13;;;6.72;;
64520;SDS011;50896;46.714;17.322;2022-10-15T12:44:28;10.50;;;5.95;;
64520;SDS011;50896;46.714;17.322;2022-10-15T12:46:59;15.80;;;9.80;;
64520;SDS011;50896;46.714;17.322;2022-10-15T12:55:17;11.02;;;6.60;;
64520;SDS011;50896;46.714;17.322;2022-10-15T12:58:44;10.85;;;6.30;;
64520;SDS011;50896;46.714;17.322;2022-10-15T13:06:26;12.23;;;6.85;;
64520;SDS011;50896;46.714;17.322;2022-10-15T13:11:45;15.35;;;6.90;;
64520;SDS011;50896;46.714;17.322;2022-10-15T13:17:14;13.23;;;6.63;;
64520;SDS011;50896;46.714;17.322;2022-10-15T13:22:23;13.38;;;7.32;;
64520;SDS011;50896;46.714;17.322;2022-10-15T13:25:15;14.45;;;8.05;;
64520;SDS011;50896;46.714;17.322;2022-10-15T13:27:44;35.83;;;21.95;;
64520;SDS011;50896;46.714;17.322;2022-10-15T13:30:15;33.25;;;18.58;;
64520;SDS011;50896;46.714;17.322;2022-10-15T13:32:49;32.38;;;17.98;;
64520;SDS011;50896;46.714;17.322;2022-10-15T13:35:28;28.52;;;17.05;;
64520;SDS011;50896;46.714;17.322;2022-10-15T13:38:00;19.27;;;11.67;;
64520;SDS011;50896;46.714;17.322;2022-10-15T13:40:34;13.23;;;6.53;;
64520;SDS011;50896;46.714;17.322;2022-10-15T13:43:20;10.67;;;6.67;;
64520;SDS011;50896;46.714;17.322;2022-10-15T13:45:57;9.63;;;6.80;;
64520;SDS011;50896;46.714;17.322;2022-10-15T13:48:27;17.05;;;6.75;;
64520;SDS011;50896;46.714;17.322;2022-10-15T13:51:05;8.50;;;6.40;;
64520;SDS011;50896;46.714;17.322;2022-10-15T13:53:41;11.73;;;6.32;;
64520;SDS011;50896;46.714;17.322;2022-10-15T13:56:29;14.98;;;7.05;;
64520;SDS011;50896;46.714;17.322;2022-10-15T13:59:03;10.25;;;6.47;;
64520;SDS011;50896;46.714;17.322;2022-10-15T14:01:50;9.00;;;6.15;;
64520;SDS011;50896;46.714;17.322;2022-10-15T14:04:29;10.38;;;7.07;;
64520;SDS011;50896;46.714;17.322;2022-10-15T14:07:03;11.45;;;7.07;;
64520;SDS011;50896;46.714;17.322;2022-10-15T14:10:00;12.57;;;6.50;;
64520;SDS011;50896;46.714;17.322;2022-10-15T14:12:33;11.32;;;7.22;;
64520;SDS011;50896;46.714;17.322;2022-10-15T14:18:15;18.95;;;9.80;;
64520;SDS011;50896;46.714;17.322;2022-10-15T14:20:52;14.00;;;8.70;;
64520;SDS011;50896;46.714;17.322;2022-10-15T14:23:23;11.60;;;7.40;;
64520;SDS011;50896;46.714;17.322;2022-10-15T14:25:58;9.75;;;6.82;;
64520;SDS011;50896;46.714;17.322;2022-10-15T14:28:29;8.88;;;6.40;;
64520;SDS011;50896;46.714;17.322;2022-10-15T14:31:03;14.00;;;7.50;;
64520;SDS011;50896;46.714;17.322;2022-10-15T14:38:37;11.95;;;7.45;;
64520;SDS011;50896;46.714;17.322;2022-10-15T14:46:45;12.60;;;7.32;;
64520;SDS011;50896;46.714;17.322;2022-10-15T14:49:19;16.58;;;9.10;;
64520;SDS011;50896;46.714;17.322;2022-10-15T14:52:05;12.27;;;7.47;;
64520;SDS011;50896;46.714;17.322;2022-10-15T14:55:13;14.85;;;8.60;;
64520;SDS011;50896;46.714;17.322;2022-10-15T14:57:47;12.63;;;7.35;;
64520;SDS011;50896;46.714;17.322;2022-10-15T15:00:28;11.57;;;7.57;;
64520;SDS011;50896;46.714;17.322;2022-10-15T15:03:16;13.07;;;6.93;;
64520;SDS011;50896;46.714;17.322;2022-10-15T15:05:51;12.45;;;6.97;;
64520;SDS011;50896;46.714;17.322;2022-10-15T15:08:34;11.95;;;7.18;;
64520;SDS011;50896;46.714;17.322;2022-10-15T15:11:03;13.20;;;8.43;;
64520;SDS011;50896;46.714;17.322;2022-10-15T15:13:36;15.98;;;8.43;;
64520;SDS011;50896;46.714;17.322;2022-10-15T15:16:12;9.43;;;7.15;;
64520;SDS011;50896;46.714;17.322;2022-10-15T15:18:40;13.27;;;7.75;;
64520;SDS011;50896;46.714;17.322;2022-10-15T15:21:13;13.95;;;7.68;;
64520;SDS011;50896;46.714;17.322;2022-10-15T15:23:55;10.73;;;7.68;;
64520;SDS011;50896;46.714;17.322;2022-10-15T15:26:29;11.82;;;7.85;;
64520;SDS011;50896;46.714;17.322;2022-10-15T15:29:08;10.57;;;7.70;;
64520;SDS011;50896;46.714;17.322;2022-10-15T15:31:45;12.63;;;7.88;;
64520;SDS011;50896;46.714;17.322;2022-10-15T15:34:13;11.57;;;7.68;;
64520;SDS011;50896;46.714;17.322;2022-10-15T15:36:43;8.75;;;6.93;;
64520;SDS011;50896;46.714;17.322;2022-10-15T15:39:15;11.63;;;7.82;;
64520;SDS011;50896;46.714;17.322;2022-10-15T15:41:49;12.15;;;8.15;;
64520;SDS011;50896;46.714;17.322;2022-10-15T15:44:28;20.95;;;12.00;;
64520;SDS011;50896;46.714;17.322;2022-10-15T15:46:56;25.20;;;16.67;;
64520;SDS011;50896;46.714;17.322;2022-10-15T15:49:23;27.98;;;18.85;;
64520;SDS011;50896;46.714;17.322;2022-10-15T15:51:59;27.25;;;16.38;;
64520;SDS011;50896;46.714;17.322;2022-10-15T15:54:27;21.70;;;13.52;;
64520;SDS011;50896;46.714;17.322;2022-10-15T15:57:04;17.27;;;11.18;;
64520;SDS011;50896;46.714;17.322;2022-10-15T15:59:38;18.33;;;11.48;;
64520;SDS011;50896;46.714;17.322;2022-10-15T16:02:19;16.92;;;10.23;;
64520;SDS011;50896;46.714;17.322;2022-10-15T16:04:51;12.30;;;9.20;;
64520;SDS011;50896;46.714;17.322;2022-10-15T16:07:19;12.57;;;9.13;;
64520;SDS011;50896;46.714;17.322;2022-10-15T16:09:54;12.55;;;9.63;;
64520;SDS011;50896;46.714;17.322;2022-10-15T16:12:26;13.95;;;9.73;;
64520;SDS011;50896;46.714;17.322;2022-10-15T16:14:53;21.63;;;9.85;;
64520;SDS011;50896;46.714;17.322;2022-10-15T16:17:28;16.02;;;10.52;;
64520;SDS011;50896;46.714;17.322;2022-10-15T16:20:02;11.55;;;8.88;;
64520;SDS011;50896;46.714;17.322;2022-10-15T16:22:48;12.27;;;9.07;;
64520;SDS011;50896;46.714;17.322;2022-10-15T16:25:24;16.75;;;9.55;;
64520;SDS011;50896;46.714;17.322;2022-10-15T16:27:55;16.95;;;10.57;;
64520;SDS011;50896;46.714;17.322;2022-10-15T16:30:31;19.05;;;12.90;;
64520;SDS011;50896;46.714;17.322;2022-10-15T16:33:04;20.17;;;11.20;;
64520;SDS011;50896;46.714;17.322;2022-10-15T16:35:37;18.85;;;10.85;;
64520;SDS011;50896;46.714;17.322;2022-10-15T16:38:07;15.50;;;10.88;;
64520;SDS011;50896;46.714;17.322;2022-10-15T16:40:37;14.80;;;10.80;;
64520;SDS011;50896;46.714;17.322;2022-10-15T16:43:07;16.50;;;11.27;;
64520;SDS011;50896;46.714;17.322;2022-10-15T16:45:38;19.30;;;10.93;;
64520;SDS011;50896;46.714;17.322;2022-10-15T16:48:13;15.80;;;10.75;;
64520;SDS011;50896;46.714;17.322;2022-10-15T16:50:47;16.33;;;11.65;;
64520;SDS011;50896;46.714;17.322;2022-10-15T16:53:28;15.10;;;11.10;;
64520;SDS011;50896;46.714;17.322;2022-10-15T16:56:06;16.92;;;11.23;;
64520;SDS011;50896;46.714;17.322;2022-10-15T16:58:35;16.73;;;11.07;;
64520;SDS011;50896;46.714;17.322;2022-10-15T17:01:03;19.20;;;10.55;;
64520;SDS011;50896;46.714;17.322;2022-10-15T17:03:40;15.85;;;10.30;;
64520;SDS011;50896;46.714;17.322;2022-10-15T17:06:11;19.50;;;11.55;;
64520;SDS011;50896;46.714;17.322;2022-10-15T17:08:44;21.27;;;12.30;;
64520;SDS011;50896;46.714;17.322;2022-10-15T17:11:27;20.05;;;11.70;;
64520;SDS011;50896;46.714;17.322;2022-10-15T17:14:11;15.50;;;10.68;;
64520;SDS011;50896;46.714;17.322;2022-10-15T17:16:47;21.85;;;11.43;;
64520;SDS011;50896;46.714;17.322;2022-10-15T17:19:18;18.80;;;12.18;;
64520;SDS011;50896;46.714;17.322;2022-10-15T17:22:00;20.15;;;13.40;;
64520;SDS011;50896;46.714;17.322;2022-10-15T17:24:31;21.23;;;12.75;;
64520;SDS011;50896;46.714;17.322;2022-10-15T17:26:59;20.40;;;14.67;;
64520;SDS011;50896;46.714;17.322;2022-10-15T17:29:28;24.45;;;15.75;;
64520;SDS011;50896;46.714;17.322;2022-10-15T17:32:02;26.13;;;17.65;;
64520;SDS011;50896;46.714;17.322;2022-10-15T17:34:37;22.67;;;14.85;;
64520;SDS011;50896;46.714;17.322;2022-10-15T17:37:06;25.25;;;14.88;;